createdAt,value
2017-07-27T03:31:21.809Z,10.47
2017-07-27T03:33:49.487Z,8.87
2017-07-27T03:36:17.189Z,8.10
2017-07-27T03:38:44.855Z,8.60
2017-07-27T03:41:12.512Z,8.40
2017-07-27T03:43:40.173Z,7.43
2017-07-27T03:46:07.847Z,7.60
2017-07-27T03:48:35.495Z,8.23
2017-07-27T03:51:03.289Z,8.20
2017-07-27T03:53:30.967Z,9.07
2017-07-27T03:55:58.663Z,8.50
2017-07-27T03:58:27.111Z,9.80
2017-07-27T04:00:54.767Z,9.60
2017-07-27T04:03:22.426Z,8.63
2017-07-27T04:05:50.128Z,9.27
2017-07-27T04:08:18.598Z,7.90
2017-07-27T04:10:46.243Z,9.07
2017-07-27T04:13:13.901Z,7.17
2017-07-27T04:15:41.566Z,8.13
2017-07-27T04:18:09.221Z,7.27
2017-07-27T04:20:36.892Z,7.90
2017-07-27T04:23:04.558Z,7.70
2017-07-27T04:25:32.284Z,8.73
2017-07-27T04:27:59.962Z,9.47
2017-07-27T04:30:27.884Z,8.27
2017-07-27T04:32:56.294Z,7.73
2017-07-27T04:35:23.949Z,8.90
2017-07-27T04:37:51.611Z,8.40
2017-07-27T04:40:19.247Z,7.63
2017-07-27T04:42:47.693Z,8.03
2017-07-27T04:45:15.336Z,8.27
2017-07-27T04:47:43.087Z,8.30
2017-07-27T04:50:10.728Z,8.70
2017-07-27T04:52:38.483Z,8.03
2017-07-27T04:55:06.170Z,9.30
2017-07-27T04:57:45.780Z,8.17
2017-07-27T05:00:13.440Z,8.30
2017-07-27T05:02:41.096Z,8.57
2017-07-27T05:05:08.792Z,8.50
2017-07-27T05:07:36.483Z,8.50
2017-07-27T05:10:04.134Z,7.77
2017-07-27T05:12:31.792Z,8.00
2017-07-27T05:14:59.448Z,7.93
2017-07-27T05:17:27.100Z,7.70
2017-07-27T05:19:54.881Z,7.80
2017-07-27T05:22:22.538Z,8.10
2017-07-27T05:24:50.199Z,7.50
2017-07-27T05:27:17.868Z,6.80
2017-07-27T05:29:45.526Z,7.50
2017-07-27T05:32:13.320Z,8.10
2017-07-27T05:34:40.968Z,8.00
2017-07-27T05:37:08.665Z,7.30
2017-07-27T05:39:37.093Z,7.70
2017-07-27T05:42:05.131Z,7.00
2017-07-27T05:44:33.558Z,7.87
2017-07-27T05:47:01.205Z,6.93
2017-07-27T05:49:28.889Z,6.93
2017-07-27T05:51:57.313Z,7.37
2017-07-27T05:54:26.123Z,7.90
2017-07-27T05:56:53.773Z,6.40
2017-07-27T05:59:21.418Z,7.33
2017-07-27T06:01:50.120Z,6.17
2017-07-27T06:04:17.796Z,7.20
2017-07-27T06:06:45.451Z,7.00
2017-07-27T06:09:13.412Z,8.20
2017-07-27T06:11:41.076Z,6.90
2017-07-27T06:14:08.728Z,6.97
2017-07-27T06:16:36.412Z,7.27
2017-07-27T06:19:04.079Z,6.80
2017-07-27T06:21:31.757Z,6.87
2017-07-27T06:23:59.409Z,6.60
2017-07-27T06:26:27.346Z,7.00
2017-07-27T06:28:55.018Z,6.60
2017-07-27T06:31:22.688Z,8.10
2017-07-27T06:33:50.337Z,6.87
2017-07-27T06:36:18.619Z,6.57
2017-07-27T06:38:46.286Z,7.60
2017-07-27T06:41:13.925Z,7.40
2017-07-27T06:43:41.898Z,7.13
2017-07-27T06:46:09.542Z,6.63
2017-07-27T06:48:37.210Z,6.83
2017-07-27T06:51:05.926Z,6.33
2017-07-27T06:53:33.582Z,7.10
2017-07-27T06:56:01.296Z,8.00
2017-07-27T06:58:29.355Z,7.00
2017-07-27T07:00:57.018Z,7.30
2017-07-27T07:03:24.701Z,7.10
2017-07-27T07:05:52.538Z,7.07
2017-07-27T07:08:20.181Z,6.97
2017-07-27T07:10:47.822Z,7.40
2017-07-27T07:13:15.479Z,7.20
2017-07-27T07:15:43.129Z,6.97
2017-07-27T07:18:11.938Z,6.70
2017-07-27T07:20:39.580Z,7.33
2017-07-27T07:23:07.983Z,6.87
2017-07-27T07:25:35.696Z,6.97
2017-07-27T07:28:03.357Z,6.50
2017-07-27T07:30:31.007Z,6.67
2017-07-27T07:32:58.657Z,5.80
2017-07-27T07:35:26.440Z,7.93
2017-07-27T07:37:54.105Z,6.10
2017-07-27T07:40:21.764Z,5.70
2017-07-27T07:42:49.981Z,7.00
2017-07-27T07:45:18.437Z,7.03
2017-07-27T07:47:46.098Z,6.10
2017-07-27T07:50:14.106Z,6.07
2017-07-27T07:52:41.791Z,6.73
2017-07-27T07:55:09.501Z,6.03
2017-07-27T07:57:37.213Z,6.30
2017-07-27T08:00:05.652Z,5.97
2017-07-27T08:02:34.076Z,7.97
2017-07-27T08:05:01.782Z,7.20
2017-07-27T08:07:30.216Z,6.70
2017-07-27T08:10:09.903Z,7.37
2017-07-27T08:12:37.573Z,6.43
2017-07-27T08:15:06.018Z,6.60
2017-07-27T08:17:33.710Z,7.57
2017-07-27T08:20:01.708Z,6.20
2017-07-27T08:22:29.372Z,6.40
2017-07-27T08:24:57.082Z,5.87
2017-07-27T08:27:24.802Z,6.77
2017-07-27T08:29:52.469Z,6.40
2017-07-27T08:32:20.140Z,6.70
2017-07-27T08:34:47.813Z,7.40
2017-07-27T08:37:15.604Z,6.53
2017-07-27T08:39:43.321Z,8.10
2017-07-27T08:42:10.985Z,7.30
2017-07-27T08:44:38.919Z,6.73
2017-07-27T08:47:07.353Z,7.83
2017-07-27T08:49:35.020Z,6.67
2017-07-27T08:52:02.716Z,5.80
2017-07-27T08:54:31.160Z,6.87
2017-07-27T08:56:58.960Z,8.93
2017-07-27T08:59:26.634Z,6.67
2017-07-27T09:01:55.059Z,5.97
2017-07-27T09:04:23.113Z,6.20
2017-07-27T09:06:50.817Z,7.33
2017-07-27T09:09:18.469Z,8.10
2017-07-27T09:11:46.253Z,8.57
2017-07-27T09:14:13.905Z,6.13
2017-07-27T09:16:41.647Z,6.33
2017-07-27T09:19:09.686Z,6.00
2017-07-27T09:21:37.365Z,6.00
2017-07-27T09:24:05.046Z,6.40
2017-07-27T09:26:32.787Z,6.53
2017-07-27T09:29:00.491Z,6.87
2017-07-27T09:31:28.495Z,6.80
2017-07-27T09:33:56.900Z,7.20
2017-07-27T09:36:24.566Z,6.50
2017-07-27T09:38:52.529Z,6.13
2017-07-27T09:41:20.179Z,6.03
2017-07-27T09:43:47.832Z,5.70
2017-07-27T09:46:16.384Z,5.93
2017-07-27T09:48:44.041Z,6.33
2017-07-27T09:51:11.699Z,6.10
2017-07-27T09:53:39.362Z,6.13
2017-07-27T09:56:07.017Z,5.70
2017-07-27T09:58:34.695Z,5.73
2017-07-27T10:01:02.364Z,6.20
2017-07-27T10:03:30.164Z,5.80
2017-07-27T10:05:57.830Z,5.67
2017-07-27T10:08:25.477Z,5.53
2017-07-27T10:10:53.142Z,5.20
2017-07-27T10:13:20.789Z,6.00
2017-07-27T10:15:49.639Z,5.23
2017-07-27T10:18:17.291Z,5.40
2017-07-27T10:20:44.946Z,4.90
2017-07-27T10:23:13.031Z,5.68
2017-07-27T10:25:40.709Z,4.93
2017-07-27T10:28:08.352Z,4.80
2017-07-27T10:30:36.537Z,4.97
2017-07-27T10:33:04.203Z,4.60
2017-07-27T10:35:31.911Z,5.13
2017-07-27T10:37:59.817Z,4.00
2017-07-27T10:40:27.520Z,4.77
2017-07-27T10:42:55.356Z,4.20
2017-07-27T10:45:24.100Z,4.97
2017-07-27T10:47:51.817Z,4.57
2017-07-27T10:50:19.627Z,4.60
2017-07-27T10:52:47.382Z,4.63
2017-07-27T10:55:15.425Z,5.10
2017-07-27T10:57:43.103Z,5.20
2017-07-27T11:00:11.561Z,4.77
2017-07-27T11:02:39.578Z,4.60
2017-07-27T11:05:07.399Z,4.37
2017-07-27T11:07:35.057Z,4.60
2017-07-27T11:10:03.592Z,4.40
2017-07-27T11:12:31.458Z,4.57
2017-07-27T11:14:59.152Z,4.70
2017-07-27T11:17:27.120Z,4.87
2017-07-27T11:19:54.831Z,4.13
2017-07-27T11:22:22.513Z,4.30
2017-07-27T11:24:50.297Z,4.73
2017-07-27T11:27:17.970Z,3.73
2017-07-27T11:29:45.638Z,4.47
2017-07-27T11:32:13.568Z,3.90
2017-07-27T11:34:41.272Z,4.00
2017-07-27T11:37:08.923Z,4.47
2017-07-27T11:39:36.700Z,4.30
2017-07-27T11:42:04.349Z,3.70
2017-07-27T11:44:32.004Z,4.37
2017-07-27T11:46:59.674Z,4.20
2017-07-27T11:49:27.415Z,4.30
2017-07-27T11:51:55.186Z,4.37
2017-07-27T11:54:22.870Z,3.90
2017-07-27T11:56:50.531Z,3.63
2017-07-27T11:59:18.205Z,4.03
2017-07-27T12:01:45.852Z,3.30
2017-07-27T12:04:13.516Z,4.03
2017-07-27T12:06:41.172Z,3.90
2017-07-27T12:09:09.096Z,3.37
2017-07-27T12:11:36.777Z,3.50
2017-07-27T12:14:04.924Z,3.53
2017-07-27T12:16:33.372Z,3.73
2017-07-27T12:19:01.229Z,3.80
2017-07-27T12:21:28.909Z,4.00
2017-07-27T12:23:56.556Z,3.30
2017-07-27T12:26:24.292Z,4.47
2017-07-27T12:28:52.013Z,3.97
2017-07-27T12:31:20.499Z,3.47
2017-07-27T12:33:48.214Z,3.70
2017-07-27T12:36:16.203Z,3.50
2017-07-27T12:38:43.888Z,4.60
2017-07-27T12:41:11.582Z,4.53
2017-07-27T12:43:39.578Z,4.63
2017-07-27T12:46:07.228Z,4.40
2017-07-27T12:48:34.913Z,4.30
2017-07-27T12:51:02.967Z,4.53
2017-07-27T12:53:31.031Z,3.80
2017-07-27T12:55:58.703Z,4.00
2017-07-27T12:58:26.498Z,3.47
2017-07-27T13:00:54.167Z,4.27
2017-07-27T13:03:21.829Z,4.00
2017-07-27T13:05:49.841Z,3.30
2017-07-27T13:08:17.480Z,3.10
2017-07-27T13:10:45.885Z,3.00
2017-07-27T13:13:13.679Z,3.00
2017-07-27T13:15:41.317Z,2.97
2017-07-27T13:18:08.975Z,2.70
2017-07-27T13:20:36.808Z,2.10
2017-07-27T13:23:04.463Z,3.10
2017-07-27T13:25:32.138Z,2.57
2017-07-27T13:28:00.592Z,2.53
2017-07-27T13:30:28.253Z,2.60
2017-07-27T13:32:56.261Z,2.40
2017-07-27T13:35:23.931Z,2.17
2017-07-27T13:37:51.582Z,2.67
2017-07-27T13:40:20.524Z,2.53
2017-07-27T13:42:48.256Z,2.40
2017-07-27T13:45:16.039Z,2.50
2017-07-27T13:47:43.737Z,3.27
2017-07-27T13:50:11.395Z,3.10
2017-07-27T13:52:39.140Z,44.20
2017-07-27T13:55:06.852Z,61.53
2017-07-27T13:57:35.334Z,77.00
2017-07-27T14:00:03.427Z,23.10
2017-07-27T14:02:31.140Z,4.33
2017-07-27T14:04:58.824Z,3.60
2017-07-27T14:07:27.548Z,3.73
2017-07-27T14:09:55.245Z,3.37
2017-07-27T14:12:22.924Z,2.50
2017-07-27T14:14:52.792Z,2.83
2017-07-27T14:17:20.490Z,3.00
2017-07-27T14:19:48.153Z,3.00
2017-07-27T14:22:16.138Z,3.40
2017-07-27T14:24:43.790Z,2.77
2017-07-27T14:27:11.455Z,2.57
2017-07-27T14:29:39.892Z,5.50
2017-07-27T14:32:07.554Z,5.30
2017-07-27T14:34:35.219Z,8.10
2017-07-27T14:37:02.917Z,6.73
2017-07-27T14:39:31.468Z,8.17
2017-07-27T14:41:59.142Z,7.70
2017-07-27T14:44:26.779Z,6.90
2017-07-27T14:46:54.460Z,10.17
2017-07-27T14:49:22.158Z,12.30
2017-07-27T14:51:49.845Z,11.17
2017-07-27T14:54:17.487Z,5.30
2017-07-27T14:56:45.925Z,3.90
2017-07-27T14:59:13.582Z,4.00
2017-07-27T15:01:41.652Z,3.60
2017-07-27T15:04:09.373Z,3.37
2017-07-27T15:06:37.021Z,4.37
2017-07-27T15:09:05.549Z,4.67
2017-07-27T15:11:33.232Z,4.20
2017-07-27T15:14:00.902Z,5.10
2017-07-27T15:16:28.987Z,5.10
2017-07-27T15:18:56.673Z,4.47
2017-07-27T15:21:24.377Z,6.47
2017-07-27T15:23:53.083Z,5.10
2017-07-27T15:26:20.758Z,7.40
2017-07-27T15:28:48.409Z,7.03
2017-07-27T15:31:16.450Z,14.30
2017-07-27T15:33:44.116Z,9.67
2017-07-27T15:36:11.788Z,19.00
2017-07-27T15:38:39.775Z,8.63
2017-07-27T15:41:07.420Z,7.53
2017-07-27T15:43:35.087Z,9.60
2017-07-27T15:46:03.050Z,15.50
2017-07-27T15:48:30.727Z,6.03
2017-07-27T15:50:58.397Z,9.10
2017-07-27T15:53:26.500Z,12.87
2017-07-27T15:55:54.161Z,7.73
2017-07-27T15:58:22.576Z,18.00
2017-07-27T16:00:50.566Z,16.67
2017-07-27T16:03:18.239Z,16.20
2017-07-27T16:05:45.915Z,5.80
2017-07-27T16:08:18.160Z,5.30
2017-07-27T16:10:50.730Z,5.23
2017-07-27T16:13:19.732Z,6.00
2017-07-27T16:15:47.397Z,5.60
2017-07-27T16:18:15.057Z,5.40
2017-07-27T16:20:43.188Z,5.73
2017-07-27T16:23:10.867Z,5.57
2017-07-27T16:25:38.531Z,5.30
2017-07-27T16:28:06.589Z,5.70
2017-07-27T16:30:34.258Z,5.23
2017-07-27T16:33:02.082Z,4.87
2017-07-27T16:35:31.111Z,5.10
2017-07-27T16:37:58.896Z,5.70
2017-07-27T16:40:26.620Z,5.73
2017-07-27T16:42:54.634Z,5.27
2017-07-27T16:45:22.412Z,5.37
2017-07-27T16:47:50.025Z,5.47
2017-07-27T16:50:18.017Z,4.57
2017-07-27T16:52:45.693Z,4.80
2017-07-27T16:55:13.367Z,5.37
2017-07-27T16:57:41.452Z,7.50
2017-07-27T17:00:09.128Z,5.53
2017-07-27T17:02:36.772Z,5.37
2017-07-27T17:05:04.884Z,30.23
2017-07-27T17:07:32.596Z,7.13
2017-07-27T17:10:00.273Z,6.27
2017-07-27T17:12:28.998Z,5.30
2017-07-27T17:14:56.700Z,4.80
2017-07-27T17:17:24.361Z,4.80
2017-07-27T17:19:52.428Z,5.47
2017-07-27T17:22:20.159Z,4.80
2017-07-27T17:24:47.821Z,4.70
2017-07-27T17:27:15.890Z,4.60
2017-07-27T17:29:43.564Z,4.63
2017-07-27T17:35:10.960Z,5.10
2017-07-27T17:37:38.644Z,5.43
2017-07-27T17:40:07.932Z,5.03
2017-07-27T17:42:36.382Z,5.00
2017-07-27T17:45:04.559Z,5.37
2017-07-27T17:47:32.267Z,4.90
2017-07-27T17:50:00.020Z,5.43
2017-07-27T17:52:28.617Z,4.90
2017-07-27T17:54:57.186Z,5.40
2017-07-27T17:57:25.710Z,6.10
2017-07-27T17:59:53.409Z,6.87
2017-07-27T18:02:21.411Z,7.77
2017-07-27T18:07:49.529Z,5.40
2017-07-27T18:10:17.252Z,5.40
2017-07-27T18:12:45.702Z,6.10
2017-07-27T18:15:13.434Z,6.80
2017-07-27T18:17:42.044Z,6.70
2017-07-27T18:20:09.831Z,6.40
2017-07-27T18:22:37.493Z,6.77
2017-07-27T18:25:05.775Z,6.73
2017-07-27T18:27:33.438Z,6.83
2017-07-27T18:30:01.433Z,5.67
2017-07-27T18:32:29.108Z,6.67
2017-07-27T18:34:57.708Z,6.40
2017-07-27T18:37:27.736Z,7.93
2017-07-27T18:39:55.416Z,6.70
2017-07-27T18:42:23.112Z,6.73
2017-07-27T18:44:51.549Z,7.57
2017-07-27T18:47:19.530Z,8.00
2017-07-27T18:49:47.185Z,7.67
2017-07-27T18:52:14.863Z,8.43
2017-07-27T18:54:42.897Z,7.50
2017-07-27T18:57:10.588Z,9.50
2017-07-27T19:12:38.326Z,7.90
2017-07-27T19:15:06.009Z,7.00
2017-07-27T19:17:33.678Z,7.60
2017-07-27T19:20:02.141Z,6.57
2017-07-27T19:22:30.475Z,7.50
2017-07-27T19:24:58.206Z,8.23
2017-07-27T19:27:26.674Z,7.00
2017-07-27T19:29:54.403Z,6.43
2017-07-27T19:32:22.681Z,6.97
2017-07-27T19:34:50.392Z,7.07
2017-07-27T19:37:18.832Z,7.50
2017-07-27T19:39:46.561Z,7.00
2017-07-27T19:42:14.288Z,7.27
2017-07-27T19:44:41.986Z,7.97
2017-07-27T19:47:10.422Z,7.27
2017-07-27T19:49:38.087Z,8.30
2017-07-27T19:52:05.740Z,7.03
2017-07-27T19:54:33.417Z,7.17
2017-07-27T19:57:01.079Z,7.03
2017-07-27T19:59:29.869Z,5.83
2017-07-27T20:01:57.513Z,7.47
2017-07-27T20:04:25.897Z,6.50
2017-07-27T20:06:53.592Z,6.20
2017-07-27T20:09:21.271Z,6.80
2017-07-27T20:11:49.641Z,7.00
2017-07-27T20:14:17.304Z,7.17
2017-07-27T20:16:45.058Z,8.50
2017-07-27T20:19:12.717Z,7.17
2017-07-27T20:21:41.515Z,6.57
2017-07-27T20:24:09.176Z,6.40
2017-07-27T20:26:36.834Z,6.60
2017-07-27T20:29:05.276Z,6.77
2017-07-27T20:31:32.960Z,6.60
2017-07-27T20:34:00.632Z,6.23
2017-07-27T20:36:29.064Z,7.33
2017-07-27T20:38:56.881Z,7.33
2017-07-27T20:41:25.335Z,7.13
2017-07-27T20:43:53.012Z,6.87
2017-07-27T20:46:20.667Z,7.40
2017-07-27T20:48:48.661Z,6.73
2017-07-27T20:51:16.326Z,8.03
2017-07-27T20:53:44.084Z,7.23
2017-07-27T20:56:12.537Z,6.80
2017-07-27T20:58:40.231Z,7.13
2017-07-27T21:01:08.035Z,8.70
2017-07-27T21:03:36.207Z,7.27
2017-07-27T21:06:04.563Z,7.87
2017-07-27T21:08:32.818Z,7.80
2017-07-27T21:11:01.222Z,7.30
2017-07-27T21:13:28.997Z,7.20
2017-07-27T21:15:56.821Z,7.07
2017-07-27T21:18:25.592Z,7.53
2017-07-27T21:20:53.794Z,6.70
2017-07-27T21:23:21.454Z,7.40
2017-07-27T21:25:49.655Z,7.57
2017-07-27T21:28:18.360Z,7.50
2017-07-27T21:30:46.186Z,7.83
2017-07-27T21:33:14.424Z,7.10
2017-07-27T21:35:42.317Z,6.30
2017-07-27T21:38:11.357Z,6.63
2017-07-27T21:40:39.353Z,6.60
2017-07-27T21:43:07.195Z,5.97
2017-07-27T21:45:35.109Z,6.97
2017-07-27T21:48:04.677Z,6.50
2017-07-27T21:50:33.536Z,6.33
2017-07-27T21:53:01.628Z,7.27
2017-07-27T21:55:29.317Z,7.40
2017-07-27T21:57:57.375Z,7.70
2017-07-27T22:00:25.451Z,7.60
2017-07-27T22:02:53.344Z,7.93
2017-07-27T22:05:21.007Z,7.37
2017-07-27T22:07:49.421Z,7.50
2017-07-27T22:10:17.681Z,7.57
2017-07-27T22:12:45.629Z,7.57
2017-07-27T22:15:14.985Z,8.50
2017-07-27T22:17:43.029Z,8.03
2017-07-27T22:20:10.678Z,8.47
2017-07-27T22:22:39.412Z,7.73
2017-07-27T22:25:08.768Z,8.40
2017-07-27T22:27:37.684Z,7.80
